Time;durP1;ratioP1;P1;durP2;ratioP2;P2;SDS_P1;SDS_P2;PMS_P1;PMS_P2;Temp;Humidity;BMP_temperature;BMP_pressure;BME280_temperature;BME280_humidity;BME280_pressure;Samples;Min_cycle;Max_cycle;Signal;HPM_P1;HPM_P2
2022/02/22 00:01:16;;;;;;;2.75;0.73;;;;;;;;;;5082599;28;20416;-47
2022/02/22 00:03:43;;;;;;;1.50;0.68;;;;;;;;;;5083875;28;20017;-46
2022/02/22 00:06:09;;;;;;;2.95;0.90;;;;;;;;;;5081056;28;20081;-46
2022/02/22 00:08:35;;;;;;;2.05;0.65;;;;;;;;;;5082314;28;20418;-49
2022/02/22 00:11:01;;;;;;;1.98;0.63;;;;;;;;;;5082034;28;20431;-50
2022/02/22 00:13:27;;;;;;;1.23;0.80;;;;;;;;;;5091447;28;20517;-48
2022/02/22 00:15:54;;;;;;;1.77;0.57;;;;;;;;;;5091167;28;20051;-53
2022/02/22 00:18:20;;;;;;;0.82;0.57;;;;;;;;;;5091564;28;20024;-47
2022/02/22 00:20:47;;;;;;;2.90;0.80;;;;;;;;;;5091657;28;20040;-45
2022/02/22 00:23:13;;;;;;;3.03;1.02;;;;;;;;;;5090635;28;20021;-50
2022/02/22 00:25:39;;;;;;;3.33;1.88;;;;;;;;;;5091610;28;20052;-49
2022/02/22 00:28:05;;;;;;;2.55;1.23;;;;;;;;;;5089166;28;20051;-48
2022/02/22 00:30:31;;;;;;;3.63;1.60;;;;;;;;;;5091600;28;20051;-48
2022/02/22 00:32:57;;;;;;;2.47;0.93;;;;;;;;;;5090806;28;20063;-48
2022/02/22 00:35:23;;;;;;;1.63;1.33;;;;;;;;;;5090281;28;20056;-47
2022/02/22 00:37:50;;;;;;;3.17;1.40;;;;;;;;;;5091036;28;20373;-49
2022/02/22 00:40:16;;;;;;;2.50;1.05;;;;;;;;;;5090398;28;20040;-48
2022/02/22 00:42:42;;;;;;;2.00;1.10;;;;;;;;;;5091360;28;20028;-49
2022/02/22 00:45:08;;;;;;;2.72;1.40;;;;;;;;;;5090916;28;20028;-48
2022/02/22 00:47:35;;;;;;;2.08;1.02;;;;;;;;;;5095308;28;20047;-47
2022/02/22 00:50:01;;;;;;;1.70;1.10;;;;;;;;;;5094361;28;20032;-45
2022/02/22 00:52:28;;;;;;;2.28;1.13;;;;;;;;;;5095039;28;20492;-45
2022/02/22 00:54:55;;;;;;;3.00;1.00;;;;;;;;;;5095040;28;20020;-54
2022/02/22 00:57:21;;;;;;;2.03;1.10;;;;;;;;;;5094862;28;20102;-45
2022/02/22 00:59:47;;;;;;;2.28;1.08;;;;;;;;;;5095850;28;20028;-45
2022/02/22 01:02:13;;;;;;;3.75;1.27;;;;;;;;;;5094927;28;20039;-46
2022/02/22 01:04:39;;;;;;;2.85;0.95;;;;;;;;;;5095342;28;20026;-45
2022/02/22 01:07:05;;;;;;;2.55;0.98;;;;;;;;;;5094083;28;20023;-45
2022/02/22 01:09:31;;;;;;;1.92;0.82;;;;;;;;;;5095482;28;20373;-45
2022/02/22 01:11:58;;;;;;;2.72;1.17;;;;;;;;;;5094071;28;20024;-46
2022/02/22 01:14:24;;;;;;;1.63;1.23;;;;;;;;;;5094684;28;20027;-45
2022/02/22 01:16:50;;;;;;;3.05;1.10;;;;;;;;;;5094734;28;20020;-45
2022/02/22 01:19:16;;;;;;;1.52;0.93;;;;;;;;;;5094068;28;20358;-45
2022/02/22 01:21:42;;;;;;;1.55;0.90;;;;;;;;;;5094149;28;20055;-45
2022/02/22 01:24:10;;;;;;;1.88;1.35;;;;;;;;;;5093323;28;20507;-45
2022/02/22 01:26:36;;;;;;;2.00;0.90;;;;;;;;;;5094349;28;20028;-45
2022/02/22 01:29:02;;;;;;;2.67;1.10;;;;;;;;;;5093760;28;20047;-45
2022/02/22 01:31:28;;;;;;;1.95;1.10;;;;;;;;;;5094764;28;20051;-45
2022/02/22 01:33:55;;;;;;;3.55;0.95;;;;;;;;;;5094051;28;20078;-54
2022/02/22 01:36:27;;;;;;;2.60;1.20;;;;;;;;;;5094885;28;20038;-45
2022/02/22 01:38:53;;;;;;;3.15;0.85;;;;;;;;;;5092690;28;20476;-53
2022/02/22 01:41:20;;;;;;;2.42;0.98;;;;;;;;;;5093926;28;20035;-45
2022/02/22 01:43:46;;;;;;;2.58;1.00;;;;;;;;;;5094561;28;20031;-45
2022/02/22 01:46:12;;;;;;;2.30;1.00;;;;;;;;;;5093652;28;20034;-46
2022/02/22 01:48:38;;;;;;;2.28;0.93;;;;;;;;;;5094619;28;20035;-45
2022/02/22 01:51:04;;;;;;;1.75;0.70;;;;;;;;;;5093747;28;20028;-47
2022/02/22 01:53:32;;;;;;;3.40;1.25;;;;;;;;;;5094173;28;20028;-45
2022/02/22 01:55:58;;;;;;;4.70;1.10;;;;;;;;;;5092724;28;20035;-45
2022/02/22 01:58:24;;;;;;;3.80;1.48;;;;;;;;;;5092985;28;20103;-45
2022/02/22 02:00:51;;;;;;;2.17;1.00;;;;;;;;;;5094242;28;20036;-46
2022/02/22 02:03:17;;;;;;;4.30;1.45;;;;;;;;;;5093101;28;20089;-45
2022/02/22 02:05:44;;;;;;;2.60;1.13;;;;;;;;;;5094138;28;20030;-45
2022/02/22 02:08:10;;;;;;;1.98;1.00;;;;;;;;;;5093521;28;20028;-45
2022/02/22 02:10:36;;;;;;;2.22;0.98;;;;;;;;;;5093907;28;20111;-45
2022/02/22 02:13:02;;;;;;;4.00;0.90;;;;;;;;;;5092886;28;20027;-45
2022/02/22 02:15:28;;;;;;;1.80;0.85;;;;;;;;;;5092759;28;20418;-46
2022/02/22 02:17:54;;;;;;;2.42;1.02;;;;;;;;;;5093674;28;20067;-53
2022/02/22 02:20:20;;;;;;;2.03;1.00;;;;;;;;;;5093147;28;20044;-46
2022/02/22 02:22:46;;;;;;;1.92;0.80;;;;;;;;;;5093445;28;20457;-46
2022/02/22 02:25:13;;;;;;;2.25;0.90;;;;;;;;;;5092618;28;20024;-45
2022/02/22 02:27:39;;;;;;;1.75;0.90;;;;;;;;;;5093365;28;20048;-45
2022/02/22 02:30:06;;;;;;;3.15;0.82;;;;;;;;;;5092823;28;20103;-46
2022/02/22 02:32:32;;;;;;;1.90;1.30;;;;;;;;;;5093607;28;20365;-46
2022/02/22 02:34:58;;;;;;;3.08;0.95;;;;;;;;;;5093003;28;20385;-54
2022/02/22 02:37:24;;;;;;;0.95;0.82;;;;;;;;;;5090631;28;20024;-45
2022/02/22 02:39:51;;;;;;;2.08;1.33;;;;;;;;;;5066007;28;20029;-45
2022/02/22 02:42:17;;;;;;;1.27;0.70;;;;;;;;;;5064382;28;20599;-45
2022/02/22 02:44:47;;;;;;;1.52;0.73;;;;;;;;;;5062783;28;20024;-47
2022/02/22 02:47:13;;;;;;;1.55;0.65;;;;;;;;;;5065324;28;20378;-45
2022/02/22 02:49:40;;;;;;;2.25;1.00;;;;;;;;;;5062624;28;20017;-46
2022/02/22 02:52:07;;;;;;;2.13;1.05;;;;;;;;;;5062516;28;20035;-45
2022/02/22 02:54:33;;;;;;;2.80;1.00;;;;;;;;;;5063628;28;20078;-45
2022/02/22 02:56:59;;;;;;;1.40;0.85;;;;;;;;;;5064291;28;20029;-54
2022/02/22 02:59:25;;;;;;;0.98;0.52;;;;;;;;;;5064111;28;20027;-45
2022/02/22 03:01:51;;;;;;;2.47;1.15;;;;;;;;;;5065749;28;20032;-45
2022/02/22 03:04:17;;;;;;;2.05;1.08;;;;;;;;;;5062369;28;20021;-45
2022/02/22 03:06:44;;;;;;;1.88;0.60;;;;;;;;;;5062998;28;20044;-45
2022/02/22 03:09:10;;;;;;;1.65;0.95;;;;;;;;;;5061636;28;20024;-50
2022/02/22 03:11:36;;;;;;;0.98;0.75;;;;;;;;;;5060215;28;20414;-45
2022/02/22 03:14:02;;;;;;;3.90;0.93;;;;;;;;;;5062256;28;20036;-45
2022/02/22 03:16:28;;;;;;;1.50;0.60;;;;;;;;;;5065739;28;20029;-46
2022/02/22 03:18:55;;;;;;;3.50;1.20;;;;;;;;;;5065165;28;20032;-49
2022/02/22 03:21:21;;;;;;;3.47;1.02;;;;;;;;;;5063789;28;20115;-48
2022/02/22 03:23:47;;;;;;;1.75;0.95;;;;;;;;;;5065053;28;20024;-47
2022/02/22 03:26:13;;;;;;;1.90;0.85;;;;;;;;;;5071664;28;20556;-47
2022/02/22 03:28:39;;;;;;;1.55;0.70;;;;;;;;;;5071316;28;20099;-46
2022/02/22 03:31:05;;;;;;;1.17;0.65;;;;;;;;;;5071195;28;20428;-46
2022/02/22 03:33:32;;;;;;;2.30;0.60;;;;;;;;;;5071913;28;20031;-45
2022/02/22 03:35:58;;;;;;;3.92;1.10;;;;;;;;;;5071515;28;20116;-53
2022/02/22 03:38:24;;;;;;;1.85;0.63;;;;;;;;;;5071465;28;20041;-45
2022/02/22 03:40:50;;;;;;;1.33;0.80;;;;;;;;;;5054249;28;20149;-47
2022/02/22 03:43:16;;;;;;;1.90;0.70;;;;;;;;;;5053360;28;20049;-45
2022/02/22 03:45:42;;;;;;;1.80;0.73;;;;;;;;;;5071834;28;20036;-46
2022/02/22 03:48:08;;;;;;;2.17;0.60;;;;;;;;;;5070955;28;20028;-46
2022/02/22 03:50:34;;;;;;;2.92;0.82;;;;;;;;;;5070999;28;20021;-46
2022/02/22 03:53:00;;;;;;;2.13;0.80;;;;;;;;;;5071104;28;20074;-49
2022/02/22 03:55:27;;;;;;;1.58;0.70;;;;;;;;;;5072008;28;20028;-46
2022/02/22 03:57:53;;;;;;;2.25;0.60;;;;;;;;;;5071767;28;20024;-45
2022/02/22 04:00:21;;;;;;;3.28;0.85;;;;;;;;;;5070694;28;20089;-46
2022/02/22 04:02:47;;;;;;;3.88;0.90;;;;;;;;;;5071918;28;20028;-45
2022/02/22 04:05:14;;;;;;;2.40;0.75;;;;;;;;;;5071012;28;20027;-46
2022/02/22 04:07:40;;;;;;;1.73;0.70;;;;;;;;;;5071499;28;20021;-46
2022/02/22 04:10:07;;;;;;;2.42;0.93;;;;;;;;;;5071230;28;20056;-46
2022/02/22 04:12:33;;;;;;;1.08;0.80;;;;;;;;;;5071541;28;20401;-46
2022/02/22 04:15:00;;;;;;;3.08;0.88;;;;;;;;;;5070844;28;20075;-53
2022/02/22 04:17:26;;;;;;;1.10;0.50;;;;;;;;;;5071409;28;20097;-50
2022/02/22 04:19:52;;;;;;;1.55;0.77;;;;;;;;;;5070594;28;20107;-46
2022/02/22 04:22:19;;;;;;;2.03;0.70;;;;;;;;;;5070037;28;20483;-46
2022/02/22 04:24:45;;;;;;;2.05;0.90;;;;;;;;;;5071481;28;20111;-49
2022/02/22 04:27:11;;;;;;;2.30;0.75;;;;;;;;;;5070053;28;20098;-45
2022/02/22 04:29:38;;;;;;;2.63;0.80;;;;;;;;;;5071534;28;20037;-49
2022/02/22 04:32:04;;;;;;;1.08;0.93;;;;;;;;;;5052555;28;20043;-48
2022/02/22 04:34:30;;;;;;;2.20;0.60;;;;;;;;;;5071869;28;20024;-48
2022/02/22 04:36:56;;;;;;;2.30;0.80;;;;;;;;;;5071296;28;20094;-48
2022/02/22 04:39:22;;;;;;;2.05;0.52;;;;;;;;;;5070897;28;20101;-46
2022/02/22 04:41:50;;;;;;;2.55;0.73;;;;;;;;;;5053210;28;20039;-45
2022/02/22 04:44:16;;;;;;;1.95;0.98;;;;;;;;;;5070552;28;20029;-45
2022/02/22 04:46:42;;;;;;;2.60;0.85;;;;;;;;;;5071280;28;20024;-46
2022/02/22 04:49:09;;;;;;;1.02;0.60;;;;;;;;;;5052531;28;20028;-49
2022/02/22 04:51:36;;;;;;;1.45;0.60;;;;;;;;;;5070385;28;20054;-48
2022/02/22 04:54:02;;;;;;;0.85;0.45;;;;;;;;;;5070539;28;20021;-51
2022/02/22 04:56:28;;;;;;;1.58;0.57;;;;;;;;;;5069770;28;20546;-47
2022/02/22 04:58:55;;;;;;;1.85;1.10;;;;;;;;;;5071202;28;20071;-49
2022/02/22 05:01:21;;;;;;;3.95;1.00;;;;;;;;;;5069728;28;20044;-46
2022/02/22 05:03:48;;;;;;;2.85;0.57;;;;;;;;;;5071118;28;20477;-48
2022/02/22 05:06:14;;;;;;;2.55;0.70;;;;;;;;;;5070213;28;20038;-45
2022/02/22 05:08:40;;;;;;;1.48;0.65;;;;;;;;;;5070863;28;20474;-46
2022/02/22 05:11:06;;;;;;;1.70;0.85;;;;;;;;;;5070563;28;20025;-51
2022/02/22 05:13:33;;;;;;;2.17;0.80;;;;;;;;;;5070865;28;20039;-45
2022/02/22 05:15:59;;;;;;;2.10;0.77;;;;;;;;;;5056790;28;20475;-55
2022/02/22 05:18:25;;;;;;;2.42;1.00;;;;;;;;;;5070086;28;20024;-48
2022/02/22 05:20:57;;;;;;;2.65;0.70;;;;;;;;;;5071023;28;20024;-45
2022/02/22 05:23:27;;;;;;;2.95;0.90;;;;;;;;;;5069984;28;20594;-49
2022/02/22 05:25:54;;;;;;;1.33;0.88;;;;;;;;;;5070958;28;20025;-46
2022/02/22 05:28:23;;;;;;;1.40;0.68;;;;;;;;;;5070065;28;20252;-50
2022/02/22 05:30:52;;;;;;;2.08;0.73;;;;;;;;;;5070470;28;20036;-48
2022/02/22 05:33:18;;;;;;;2.20;0.80;;;;;;;;;;5073318;28;20024;-47
2022/02/22 05:35:45;;;;;;;1.58;1.00;;;;;;;;;;5074165;28;20409;-50
2022/02/22 05:38:11;;;;;;;1.70;0.90;;;;;;;;;;5073238;28;20048;-48
2022/02/22 05:40:37;;;;;;;1.90;0.50;;;;;;;;;;5074129;28;20477;-49
2022/02/22 05:43:03;;;;;;;1.55;0.80;;;;;;;;;;5073549;28;20031;-54
2022/02/22 05:45:29;;;;;;;2.10;0.80;;;;;;;;;;5067973;28;20029;-49
2022/02/22 05:47:55;;;;;;;1.30;0.75;;;;;;;;;;5068163;28;20074;-46
2022/02/22 05:50:21;;;;;;;2.35;0.95;;;;;;;;;;5063971;28;20016;-47
2022/02/22 05:52:47;;;;;;;3.35;0.90;;;;;;;;;;5064313;28;20053;-46
2022/02/22 05:55:13;;;;;;;3.80;1.30;;;;;;;;;;5065478;28;20091;-47
2022/02/22 05:57:40;;;;;;;1.05;0.60;;;;;;;;;;5063244;28;20100;-47
2022/02/22 06:00:08;;;;;;;1.85;0.77;;;;;;;;;;5063343;28;20028;-50
2022/02/22 06:02:34;;;;;;;1.67;0.65;;;;;;;;;;5065789;28;20031;-45
2022/02/22 06:05:00;;;;;;;3.40;0.80;;;;;;;;;;5073519;28;20021;-54
2022/02/22 06:07:26;;;;;;;1.55;0.70;;;;;;;;;;5073450;28;20029;-45
2022/02/22 06:09:52;;;;;;;1.92;0.70;;;;;;;;;;5073194;28;20020;-46
2022/02/22 06:12:18;;;;;;;1.27;0.80;;;;;;;;;;5072445;28;20028;-47
2022/02/22 06:14:44;;;;;;;2.22;0.90;;;;;;;;;;5072673;28;20462;-46
2022/02/22 06:17:10;;;;;;;1.27;0.82;;;;;;;;;;5072597;28;20025;-48
2022/02/22 06:19:35;;;;;;;2.03;0.68;;;;;;;;;;5073272;28;20021;-45
2022/02/22 06:22:02;;;;;;;1.38;0.70;;;;;;;;;;5072475;28;20127;-54
2022/02/22 06:24:28;;;;;;;2.35;1.05;;;;;;;;;;5072901;28;20020;-46
2022/02/22 06:26:54;;;;;;;1.52;0.70;;;;;;;;;;5073168;28;20462;-45
2022/02/22 06:29:20;;;;;;;1.60;0.60;;;;;;;;;;5072256;28;20025;-47
2022/02/22 06:31:48;;;;;;;2.10;0.80;;;;;;;;;;5072719;28;20408;-47
2022/02/22 06:34:14;;;;;;;4.13;0.85;;;;;;;;;;5071738;28;20412;-50
2022/02/22 06:36:40;;;;;;;1.92;0.60;;;;;;;;;;5073048;28;20107;-50
2022/02/22 06:39:06;;;;;;;1.65;0.85;;;;;;;;;;5072275;28;20123;-46
2022/02/22 06:41:32;;;;;;;3.03;1.17;;;;;;;;;;5073223;28;20040;-45
2022/02/22 06:43:58;;;;;;;2.15;0.80;;;;;;;;;;5071912;28;20021;-47
2022/02/22 06:46:24;;;;;;;1.45;0.60;;;;;;;;;;5072615;28;20025;-49
2022/02/22 06:48:50;;;;;;;2.53;1.05;;;;;;;;;;5073622;28;20078;-45
2022/02/22 06:51:17;;;;;;;4.68;1.30;;;;;;;;;;5072215;28;20032;-46
2022/02/22 06:53:43;;;;;;;2.60;0.70;;;;;;;;;;5072281;28;20108;-42
2022/02/22 06:56:08;;;;;;;2.55;0.60;;;;;;;;;;5072044;28;20092;-46
2022/02/22 06:58:34;;;;;;;1.45;0.80;;;;;;;;;;5072578;28;20112;-46
2022/02/22 07:01:00;;;;;;;1.20;0.60;;;;;;;;;;5063725;28;20035;-46
2022/02/22 07:03:27;;;;;;;2.63;0.70;;;;;;;;;;5071103;28;20050;-44
2022/02/22 07:05:53;;;;;;;3.38;1.00;;;;;;;;;;5066403;28;20021;-46
2022/02/22 07:08:19;;;;;;;4.65;1.02;;;;;;;;;;5061374;28;20036;-45
2022/02/22 07:10:45;;;;;;;3.35;0.70;;;;;;;;;;5067340;28;20028;-47
2022/02/22 07:13:11;;;;;;;4.10;0.75;;;;;;;;;;5067574;28;20043;-45
2022/02/22 07:15:37;;;;;;;2.83;1.00;;;;;;;;;;5065494;28;20016;-49
2022/02/22 07:18:04;;;;;;;4.13;1.17;;;;;;;;;;5072009;28;20035;-51
2022/02/22 07:20:30;;;;;;;3.40;1.05;;;;;;;;;;5053673;28;20055;-44
2022/02/22 07:22:57;;;;;;;3.17;1.17;;;;;;;;;;5071236;28;20037;-45
2022/02/22 07:25:23;;;;;;;4.78;1.05;;;;;;;;;;5070119;28;20025;-44
2022/02/22 07:27:49;;;;;;;4.40;1.38;;;;;;;;;;5071507;28;20021;-45
2022/02/22 07:30:16;;;;;;;7.97;2.75;;;;;;;;;;5070888;28;20028;-45
2022/02/22 07:32:42;;;;;;;3.60;1.05;;;;;;;;;;5071229;28;20424;-49
2022/02/22 07:35:09;;;;;;;3.22;1.02;;;;;;;;;;5071174;28;20020;-47
2022/02/22 07:37:36;;;;;;;3.55;1.02;;;;;;;;;;5074925;28;20052;-45
2022/02/22 07:40:03;;;;;;;4.07;1.23;;;;;;;;;;5080437;28;20020;-47
2022/02/22 07:42:29;;;;;;;3.17;1.00;;;;;;;;;;5091578;28;20047;-48
2022/02/22 07:44:56;;;;;;;4.75;1.35;;;;;;;;;;5091628;28;20044;-45
2022/02/22 07:47:22;;;;;;;2.90;0.80;;;;;;;;;;5090991;28;20073;-46
2022/02/22 07:49:48;;;;;;;5.72;1.35;;;;;;;;;;5091831;28;20059;-45
2022/02/22 07:52:14;;;;;;;5.95;1.15;;;;;;;;;;5090983;28;20515;-43
2022/02/22 07:54:40;;;;;;;3.78;0.90;;;;;;;;;;5089609;28;20032;-43
2022/02/22 07:57:07;;;;;;;4.32;1.40;;;;;;;;;;5091457;28;20024;-51
2022/02/22 07:59:33;;;;;;;3.00;1.45;;;;;;;;;;5091152;28;20039;-45
2022/02/22 08:01:59;;;;;;;7.53;1.33;;;;;;;;;;5086295;28;20384;-44
2022/02/22 08:04:26;;;;;;;8.05;1.73;;;;;;;;;;5089762;28;20027;-44
2022/02/22 08:06:53;;;;;;;6.40;1.33;;;;;;;;;;5090845;28;20421;-46
2022/02/22 08:09:19;;;;;;;4.47;1.50;;;;;;;;;;5075864;28;20050;-46
2022/02/22 08:11:46;;;;;;;5.75;1.67;;;;;;;;;;5096901;28;20153;-48
2022/02/22 08:14:12;;;;;;;3.55;1.30;;;;;;;;;;5092080;28;20020;-46
2022/02/22 08:16:38;;;;;;;6.95;1.58;;;;;;;;;;5091972;28;20499;-46
2022/02/22 08:19:04;;;;;;;5.07;1.40;;;;;;;;;;5091352;28;20039;-46
2022/02/22 08:21:31;;;;;;;4.50;1.30;;;;;;;;;;5090875;28;20051;-45
2022/02/22 08:23:56;;;;;;;6.65;1.55;;;;;;;;;;5091730;28;20047;-46
2022/02/22 08:26:22;;;;;;;5.32;1.50;;;;;;;;;;5091083;28;20534;-45
2022/02/22 08:28:48;;;;;;;7.38;1.95;;;;;;;;;;5091454;28;20020;-46
2022/02/22 08:31:15;;;;;;;5.40;1.10;;;;;;;;;;5090591;28;20496;-46
2022/02/22 08:33:41;;;;;;;7.40;1.50;;;;;;;;;;5091712;28;20082;-46
2022/02/22 08:36:07;;;;;;;10.27;1.92;;;;;;;;;;5091282;28;20586;-47
2022/02/22 08:38:33;;;;;;;5.93;1.90;;;;;;;;;;5091225;28;20040;-46
2022/02/22 08:40:59;;;;;;;7.85;2.30;;;;;;;;;;5090387;28;20036;-46
2022/02/22 08:43:25;;;;;;;4.93;1.33;;;;;;;;;;5090984;28;20039;-46
2022/02/22 08:45:51;;;;;;;4.18;1.25;;;;;;;;;;5091995;28;20024;-48
2022/02/22 08:48:17;;;;;;;7.22;2.15;;;;;;;;;;5090949;28;20027;-46
2022/02/22 08:50:43;;;;;;;4.00;1.50;;;;;;;;;;5091400;28;20396;-45
2022/02/22 08:53:09;;;;;;;5.10;1.50;;;;;;;;;;5090512;28;20056;-45
2022/02/22 08:55:36;;;;;;;4.75;1.52;;;;;;;;;;5085415;28;20012;-46
2022/02/22 08:58:02;;;;;;;5.82;1.63;;;;;;;;;;5093253;28;20373;-47
2022/02/22 09:00:31;;;;;;;3.75;1.20;;;;;;;;;;5091593;28;20105;-47
2022/02/22 09:03:00;;;;;;;4.93;1.40;;;;;;;;;;5091762;28;20115;-49
2022/02/22 09:05:29;;;;;;;4.22;1.35;;;;;;;;;;5090632;28;20111;-47
2022/02/22 09:07:55;;;;;;;4.85;1.27;;;;;;;;;;5093719;28;20426;-51
2022/02/22 09:10:22;;;;;;;5.72;2.08;;;;;;;;;;5091231;28;20473;-46
2022/02/22 09:12:48;;;;;;;4.13;1.25;;;;;;;;;;5094993;28;20020;-46
2022/02/22 09:15:16;;;;;;;3.28;1.35;;;;;;;;;;5094515;28;20040;-47
2022/02/22 09:17:43;;;;;;;2.15;0.70;;;;;;;;;;5095573;28;20059;-47
2022/02/22 09:20:10;;;;;;;3.90;1.00;;;;;;;;;;5094758;28;20028;-47
2022/02/22 09:22:37;;;;;;;4.20;1.48;;;;;;;;;;5094878;28;20481;-47
2022/02/22 09:25:03;;;;;;;3.88;1.20;;;;;;;;;;5095055;28;20114;-49
2022/02/22 09:27:29;;;;;;;4.82;1.38;;;;;;;;;;5094059;28;20028;-47
2022/02/22 09:29:55;;;;;;;3.38;1.20;;;;;;;;;;5095392;28;20032;-49
2022/02/22 09:32:23;;;;;;;2.90;1.25;;;;;;;;;;5093813;28;20044;-47
2022/02/22 09:34:49;;;;;;;3.83;1.63;;;;;;;;;;5094953;28;20027;-46
2022/02/22 09:37:15;;;;;;;3.10;1.20;;;;;;;;;;5093984;28;20028;-47
2022/02/22 09:39:41;;;;;;;5.45;1.10;;;;;;;;;;5094661;28;20020;-49
2022/02/22 09:42:08;;;;;;;6.25;1.58;;;;;;;;;;5094331;28;20032;-57
2022/02/22 09:44:35;;;;;;;2.60;1.20;;;;;;;;;;5094098;28;20473;-47
2022/02/22 09:47:01;;;;;;;3.55;1.20;;;;;;;;;;5093787;28;20046;-46
2022/02/22 09:49:27;;;;;;;3.78;1.33;;;;;;;;;;5094002;28;20622;-47
2022/02/22 09:51:54;;;;;;;3.42;1.52;;;;;;;;;;5093686;28;20024;-46
2022/02/22 09:54:21;;;;;;;2.72;1.20;;;;;;;;;;5094017;28;20020;-46
2022/02/22 09:56:47;;;;;;;2.65;1.05;;;;;;;;;;5094407;28;20039;-48
2022/02/22 09:59:13;;;;;;;2.35;1.08;;;;;;;;;;5093015;28;20028;-48
2022/02/22 10:01:47;;;;;;;2.25;1.10;;;;;;;;;;5090007;28;20115;-46
2022/02/22 10:04:13;;;;;;;4.47;1.00;;;;;;;;;;5093714;28;20036;-46
2022/02/22 10:06:39;;;;;;;3.42;0.90;;;;;;;;;;5094461;28;20020;-51
2022/02/22 10:09:06;;;;;;;2.47;1.17;;;;;;;;;;5093985;28;20031;-47
2022/02/22 10:11:49;;;;;;;2.88;1.05;;;;;;;;;;5092641;28;20418;-47
2022/02/22 10:14:25;;;;;;;3.65;1.00;;;;;;;;;;5092667;28;20380;-47
2022/02/22 10:16:53;;;;;;;2.40;1.05;;;;;;;;;;5093845;28;20051;-45
2022/02/22 10:19:19;;;;;;;4.63;1.17;;;;;;;;;;5092242;28;20020;-46
2022/02/22 10:21:55;;;;;;;3.60;1.10;;;;;;;;;;5092157;28;20032;-46
2022/02/22 10:24:21;;;;;;;1.92;0.80;;;;;;;;;;5093023;28;20523;-49
2022/02/22 10:26:48;;;;;;;2.50;1.20;;;;;;;;;;5094418;28;20081;-49
2022/02/22 10:29:15;;;;;;;2.35;0.77;;;;;;;;;;5095516;28;20031;-51
2022/02/22 10:31:41;;;;;;;2.08;0.95;;;;;;;;;;5093706;28;20078;-47
2022/02/22 10:34:08;;;;;;;3.65;0.88;;;;;;;;;;5093442;28;20389;-49
2022/02/22 10:36:36;;;;;;;3.28;1.02;;;;;;;;;;5093904;28;20048;-47
2022/02/22 10:39:03;;;;;;;2.05;0.80;;;;;;;;;;5077865;28;20087;-46
2022/02/22 10:41:34;;;;;;;2.88;0.88;;;;;;;;;;5072614;28;20040;-46
2022/02/22 10:44:02;;;;;;;1.60;0.73;;;;;;;;;;5072945;28;20035;-46
2022/02/22 10:46:31;;;;;;;2.28;0.98;;;;;;;;;;5072715;28;20024;-46
2022/02/22 10:49:05;;;;;;;1.98;1.08;;;;;;;;;;5073547;28;20024;-46
2022/02/22 10:51:36;;;;;;;2.63;0.95;;;;;;;;;;5072558;28;20028;-49
2022/02/22 10:54:03;;;;;;;3.00;0.98;;;;;;;;;;5073321;28;20028;-49
2022/02/22 10:56:30;;;;;;;2.60;0.80;;;;;;;;;;5072044;28;20486;-47
2022/02/22 10:58:57;;;;;;;2.38;0.90;;;;;;;;;;5054913;28;20025;-50
2022/02/22 11:01:23;;;;;;;1.67;0.80;;;;;;;;;;5071843;28;20379;-48
2022/02/22 11:03:50;;;;;;;3.33;1.05;;;;;;;;;;5072784;28;20125;-50
2022/02/22 11:06:16;;;;;;;3.22;1.30;;;;;;;;;;5067312;28;20024;-50
2022/02/22 11:08:46;;;;;;;2.17;1.10;;;;;;;;;;5069571;28;20028;-49
2022/02/22 11:11:18;;;;;;;2.25;1.10;;;;;;;;;;5072661;28;20031;-49
2022/02/22 11:13:55;;;;;;;2.90;0.95;;;;;;;;;;5072385;28;20024;-46
2022/02/22 11:16:21;;;;;;;3.10;0.80;;;;;;;;;;5072137;28;20099;-49
2022/02/22 11:18:49;;;;;;;2.58;0.85;;;;;;;;;;5072621;28;20037;-47
2022/02/22 11:21:16;;;;;;;1.85;1.00;;;;;;;;;;5070474;28;20025;-49
2022/02/22 11:23:42;;;;;;;5.57;1.58;;;;;;;;;;5056680;28;20032;-48
2022/02/22 11:26:10;;;;;;;1.92;0.88;;;;;;;;;;5073514;28;20028;-49
2022/02/22 11:28:37;;;;;;;2.67;1.10;;;;;;;;;;5072839;28;20032;-49
2022/02/22 11:31:11;;;;;;;2.00;0.90;;;;;;;;;;5072037;28;20048;-45
2022/02/22 11:33:38;;;;;;;3.13;1.75;;;;;;;;;;5071918;28;20024;-49
2022/02/22 11:36:08;;;;;;;3.63;0.90;;;;;;;;;;5072428;28;20016;-48
2022/02/22 11:38:41;;;;;;;2.10;0.80;;;;;;;;;;5071250;28;20036;-46
2022/02/22 11:41:18;;;;;;;1.80;0.90;;;;;;;;;;5072322;28;20376;-47
2022/02/22 11:44:04;;;;;;;1.52;0.80;;;;;;;;;;5071961;28;20032;-46
2022/02/22 11:46:35;;;;;;;2.20;0.80;;;;;;;;;;5070270;28;20470;-46
2022/02/22 11:49:02;;;;;;;2.15;0.90;;;;;;;;;;5069335;28;20459;-48
2022/02/22 11:51:38;;;;;;;5.68;0.88;;;;;;;;;;5062346;28;20039;-47
2022/02/22 11:54:10;;;;;;;2.15;0.93;;;;;;;;;;5072175;28;20074;-47
2022/02/22 11:56:36;;;;;;;;;;;;;;;;;;5072201;28;20016;-46
2022/02/22 11:59:13;;;;;;;3.38;1.23;;;;;;;;;;5072277;28;19961;-47
2022/02/22 12:01:43;;;;;;;3.08;1.48;;;;;;;;;;5071866;28;20093;-49
2022/02/22 12:04:18;;;;;;;2.33;1.10;;;;;;;;;;5072131;28;20025;-47
2022/02/22 12:06:53;;;;;;;1.83;1.00;;;;;;;;;;5072331;28;20021;-47
2022/02/22 12:09:19;;;;;;;3.45;0.90;;;;;;;;;;5070933;28;20035;-47
2022/02/22 12:11:45;;;;;;;2.75;1.02;;;;;;;;;;5071520;28;20028;-46
2022/02/22 12:14:13;;;;;;;5.80;1.05;;;;;;;;;;5070803;28;20031;-52
2022/02/22 12:16:43;;;;;;;4.22;0.95;;;;;;;;;;5071283;28;20496;-46
2022/02/22 12:19:11;;;;;;;2.83;0.90;;;;;;;;;;5071682;28;20017;-49
2022/02/22 12:21:38;;;;;;;3.78;1.15;;;;;;;;;;5071079;28;20105;-50
2022/02/22 12:24:05;;;;;;;2.00;0.82;;;;;;;;;;5071807;28;20029;-46
2022/02/22 12:26:31;;;;;;;1.67;0.73;;;;;;;;;;5071536;28;20409;-49
2022/02/22 12:29:00;;;;;;;1.92;1.15;;;;;;;;;;5070755;28;20432;-46
2022/02/22 12:31:36;;;;;;;2.50;0.80;;;;;;;;;;5070505;28;20033;-46
2022/02/22 12:34:09;;;;;;;2.00;0.90;;;;;;;;;;5061460;28;20116;-51
2022/02/22 12:36:37;;;;;;;1.92;0.88;;;;;;;;;;5071245;28;20142;-46
2022/02/22 12:39:07;;;;;;;2.10;0.93;;;;;;;;;;5070811;28;20040;-51
2022/02/22 12:41:35;;;;;;;4.90;1.63;;;;;;;;;;5072064;28;20048;-51
2022/02/22 12:44:01;;;;;;;5.38;1.40;;;;;;;;;;5075350;28;20021;-48
2022/02/22 12:46:27;;;;;;;5.22;1.10;;;;;;;;;;5074107;28;20036;-45
2022/02/22 12:48:54;;;;;;;2.08;1.10;;;;;;;;;;5075426;28;20074;-49
2022/02/22 12:51:30;;;;;;;4.68;1.20;;;;;;;;;;5075142;28;20025;-47
2022/02/22 12:53:57;;;;;;;4.63;0.93;;;;;;;;;;5067992;28;20033;-46
2022/02/22 12:56:30;;;;;;;4.13;0.85;;;;;;;;;;5068342;28;20355;-45
2022/02/22 12:58:56;;;;;;;2.55;0.93;;;;;;;;;;5074904;28;20102;-46
2022/02/22 13:01:22;;;;;;;2.05;0.93;;;;;;;;;;5074255;28;20067;-46
2022/02/22 13:03:50;;;;;;;3.50;1.10;;;;;;;;;;5075073;28;20060;-46
2022/02/22 13:06:16;;;;;;;2.65;0.85;;;;;;;;;;5074441;28;20035;-47
2022/02/22 13:08:44;;;;;;;3.08;0.95;;;;;;;;;;5075194;28;20446;-47
2022/02/22 13:11:10;;;;;;;2.92;0.93;;;;;;;;;;5057392;28;20527;-46
2022/02/22 13:13:36;;;;;;;3.60;1.23;;;;;;;;;;5074201;28;20028;-47
2022/02/22 13:16:09;;;;;;;2.03;0.70;;;;;;;;;;5074531;28;20373;-47
2022/02/22 13:18:35;;;;;;;1.90;0.98;;;;;;;;;;5074521;28;20033;-49
2022/02/22 13:21:11;;;;;;;1.48;0.93;;;;;;;;;;5058445;28;20059;-50
2022/02/22 13:23:37;;;;;;;2.22;0.90;;;;;;;;;;5072860;28;20385;-46
2022/02/22 13:26:04;;;;;;;3.45;1.08;;;;;;;;;;5074376;28;20145;-46
2022/02/22 13:28:34;;;;;;;2.70;1.05;;;;;;;;;;5074016;28;20024;-50
2022/02/22 13:31:11;;;;;;;2.45;1.25;;;;;;;;;;5075073;28;20149;-46
2022/02/22 13:33:38;;;;;;;3.67;1.17;;;;;;;;;;5073829;28;20377;-47
2022/02/22 13:36:11;;;;;;;2.85;1.02;;;;;;;;;;5074665;28;20020;-46
2022/02/22 13:38:37;;;;;;;2.25;0.90;;;;;;;;;;5073648;28;20055;-47
2022/02/22 13:41:11;;;;;;;2.83;1.02;;;;;;;;;;5074358;28;20033;-48
2022/02/22 13:43:37;;;;;;;2.40;0.90;;;;;;;;;;5073970;28;20021;-46
2022/02/22 13:46:04;;;;;;;1.20;0.85;;;;;;;;;;5074262;28;20040;-49
2022/02/22 13:48:30;;;;;;;2.90;1.00;;;;;;;;;;5073490;28;20029;-46
2022/02/22 13:51:07;;;;;;;2.80;1.00;;;;;;;;;;5074352;28;20028;-47
2022/02/22 13:53:33;;;;;;;2.80;1.25;;;;;;;;;;5073557;28;20024;-46
2022/02/22 13:56:02;;;;;;;2.28;1.00;;;;;;;;;;5074032;28;20028;-46
2022/02/22 13:58:29;;;;;;;2.35;1.13;;;;;;;;;;5072962;28;20488;-46
2022/02/22 14:00:59;;;;;;;1.60;0.73;;;;;;;;;;5074049;28;20460;-46
2022/02/22 14:03:25;;;;;;;2.58;0.70;;;;;;;;;;5073525;28;20436;-46
2022/02/22 14:05:52;;;;;;;3.15;1.02;;;;;;;;;;5073705;28;20439;-46
2022/02/22 14:08:18;;;;;;;2.65;1.27;;;;;;;;;;5072782;28;20436;-46
2022/02/22 14:10:47;;;;;;;3.22;1.02;;;;;;;;;;5074145;28;20098;-46
2022/02/22 14:13:15;;;;;;;1.92;0.82;;;;;;;;;;5073581;28;20389;-46
2022/02/22 14:15:42;;;;;;;2.65;1.00;;;;;;;;;;5074090;28;20033;-46
2022/02/22 14:18:08;;;;;;;4.00;1.40;;;;;;;;;;5072969;28;20539;-47
2022/02/22 14:20:34;;;;;;;2.20;1.10;;;;;;;;;;5073113;28;20086;-49
2022/02/22 14:23:01;;;;;;;3.35;1.15;;;;;;;;;;5073803;28;20035;-46
2022/02/22 14:25:29;;;;;;;3.65;1.30;;;;;;;;;;5072611;28;20036;-46
2022/02/22 14:27:58;;;;;;;2.45;0.90;;;;;;;;;;5073777;28;20017;-46
2022/02/22 14:30:24;;;;;;;3.33;1.10;;;;;;;;;;5073387;28;20381;-47
2022/02/22 14:32:50;;;;;;;3.30;0.85;;;;;;;;;;5073587;28;20028;-48
2022/02/22 14:35:16;;;;;;;3.40;1.40;;;;;;;;;;5072550;28;20024;-57
2022/02/22 14:37:42;;;;;;;2.58;1.23;;;;;;;;;;5078143;28;20485;-48
2022/02/22 14:40:08;;;;;;;4.97;1.95;;;;;;;;;;5093619;28;20027;-46
2022/02/22 14:42:35;;;;;;;1.90;0.95;;;;;;;;;;5093242;28;20028;-47